Time;durP1;ratioP1;P1;durP2;ratioP2;P2;SDS_P1;SDS_P2;PMS_P1;PMS_P2;Temp;Humidity;BMP_temperature;BMP_pressure;BME280_temperature;BME280_humidity;BME280_pressure;Samples;Min_cycle;Max_cycle;Signal;HPM_P1;HPM_P2
2022/01/21 00:00:31;;;;;;;0.10;0.10;;;;;;;;;;1756602;81;26348;-44
2022/01/21 00:02:59;;;;;;;0.20;0.20;;;;;;;;;;1750933;81;26936;-37
2022/01/21 00:05:26;;;;;;;0.30;0.30;;;;;;;;;;1749203;80;26264;-37
2022/01/21 00:07:53;;;;;;;0.10;0.10;;;;;;;;;;1756362;80;26307;-51
2022/01/21 00:10:20;;;;;;;0.40;0.10;;;;;;;;;;1754433;80;26373;-46
2022/01/21 00:12:52;;;;;;;0.20;0.20;;;;;;;;;;1756505;80;26353;-42
2022/01/21 00:15:17;;;;;;;0.10;0.10;;;;;;;;;;1754948;81;26451;-38
2022/01/21 00:17:44;;;;;;;0.17;0.17;;;;;;;;;;1758125;80;26385;-41
2022/01/21 00:31:13;;;;;;;0.20;0.20;;;;;;;;;;1754752;81;27028;-45
2022/01/21 00:33:40;;;;;;;0.20;0.20;;;;;;;;;;1757980;81;26325;-44
2022/01/21 00:36:08;;;;;;;0.20;0.20;;;;;;;;;;1755694;80;26310;-52
2022/01/21 00:38:36;;;;;;;0.10;0.10;;;;;;;;;;1749967;81;27149;-44
2022/01/21 00:41:06;;;;;;;0.20;0.20;;;;;;;;;;1757794;81;26288;-36
2022/01/21 00:43:43;;;;;;;0.10;0.10;;;;;;;;;;1755028;80;26373;-45
2022/01/21 00:46:02;;;;;;;0.20;0.20;;;;;;;;;;1755487;81;26797;-44
2022/01/21 00:48:29;;;;;;;0.20;0.20;;;;;;;;;;1754421;81;26318;-40
2022/01/21 00:50:56;;;;;;;0.10;0.10;;;;;;;;;;1757426;80;26274;-43
2022/01/21 00:53:24;;;;;;;0.10;0.10;;;;;;;;;;1755439;81;26361;-39
2022/01/21 00:55:51;;;;;;;0.10;0.10;;;;;;;;;;1756088;80;26362;-42
2022/01/21 00:58:18;;;;;;;0.20;0.20;;;;;;;;;;1754522;80;26413;-43
2022/01/21 01:00:46;;;;;;;0.20;0.20;;;;;;;;;;1748240;81;26325;-34
2022/01/21 01:03:14;;;;;;;0.30;0.30;;;;;;;;;;1751503;81;26739;-43
2022/01/21 01:05:41;;;;;;;0.62;0.10;;;;;;;;;;1758059;80;26303;-38
2022/01/21 01:08:09;;;;;;;0.10;0.10;;;;;;;;;;1749030;81;26384;-38
2022/01/21 01:10:47;;;;;;;0.30;0.30;;;;;;;;;;1758094;80;26656;-38
2022/01/21 01:21:21;;;;;;;0.03;0.03;;;;;;;;;;1695189;82;26335;-47
2022/01/21 01:29:05;;;;;;;0.10;0.10;;;;;;;;;;1754471;81;26862;-38
2022/01/21 01:31:32;;;;;;;0.20;0.20;;;;;;;;;;1753535;81;26353;-35
2022/01/21 01:34:01;;;;;;;0.30;0.30;;;;;;;;;;1757725;81;26314;-43
2022/01/21 01:36:29;;;;;;;0.10;0.10;;;;;;;;;;1758126;81;26670;-34
2022/01/21 01:39:08;;;;;;;0.10;0.10;;;;;;;;;;1753907;81;26347;-40
2022/01/21 01:41:35;;;;;;;0.20;0.20;;;;;;;;;;1751580;81;26824;-40
2022/01/21 01:49:28;;;;;;;0.10;0.10;;;;;;;;;;1753676;81;26362;-47
2022/01/21 01:51:54;;;;;;;0.15;0.15;;;;;;;;;;1750948;81;25933;-37
2022/01/21 01:54:21;;;;;;;0.20;0.20;;;;;;;;;;1746105;81;26353;-46
2022/01/21 01:56:50;;;;;;;0.10;0.10;;;;;;;;;;1757818;81;26294;-36
2022/01/21 01:59:18;;;;;;;0.15;0.10;;;;;;;;;;1753274;80;26262;-38
2022/01/21 02:01:52;;;;;;;0.20;0.20;;;;;;;;;;1754828;80;26287;-47
2022/01/21 02:04:19;;;;;;;0.23;0.23;;;;;;;;;;1756690;81;26389;-34
2022/01/21 02:06:48;;;;;;;0.10;0.10;;;;;;;;;;1758367;81;26829;-36
2022/01/21 02:09:16;;;;;;;0.10;0.10;;;;;;;;;;1738638;80;26399;-47
2022/01/21 02:11:44;;;;;;;0.10;0.10;;;;;;;;;;1756083;81;26821;-38
2022/01/21 02:14:15;;;;;;;0.10;0.10;;;;;;;;;;1757414;80;26341;-35
2022/01/21 02:17:06;;;;;;;0.20;0.20;;;;;;;;;;1757482;80;26323;-37
2022/01/21 02:21:56;;;;;;;0.10;0.10;;;;;;;;;;1757556;81;26408;-38
2022/01/21 02:24:34;;;;;;;0.20;0.20;;;;;;;;;;1757062;81;26306;-38
2022/01/21 02:26:54;;;;;;;0.17;0.17;;;;;;;;;;1756489;81;26294;-35
2022/01/21 02:29:31;;;;;;;0.30;0.17;;;;;;;;;;1758023;80;26290;-48
2022/01/21 02:31:58;;;;;;;0.20;0.20;;;;;;;;;;1749489;81;26403;-38
2022/01/21 02:34:26;;;;;;;0.10;0.10;;;;;;;;;;1750577;81;26255;-41
2022/01/21 02:36:53;;;;;;;0.20;0.20;;;;;;;;;;1758265;81;26361;-34
2022/01/21 02:39:21;;;;;;;0.20;0.20;;;;;;;;;;1746847;81;26656;-45
2022/01/21 02:41:48;;;;;;;0.10;0.10;;;;;;;;;;1751703;80;27317;-35
2022/01/21 02:44:17;;;;;;;0.20;0.20;;;;;;;;;;1745823;81;26340;-44
2022/01/21 02:46:46;;;;;;;0.20;0.20;;;;;;;;;;1753603;81;26355;-35
2022/01/21 02:49:13;;;;;;;0.10;0.10;;;;;;;;;;1758616;81;26255;-38
2022/01/21 02:51:41;;;;;;;0.10;0.10;;;;;;;;;;1758340;81;26663;-35
2022/01/21 02:54:09;;;;;;;0.20;0.20;;;;;;;;;;1756411;80;26350;-40
2022/01/21 02:56:37;;;;;;;0.30;0.30;;;;;;;;;;1757527;80;26351;-41
2022/01/21 02:59:06;;;;;;;0.20;0.20;;;;;;;;;;1755552;81;26767;-42
2022/01/21 03:01:35;;;;;;;0.15;0.15;;;;;;;;;;1743524;80;26449;-46
2022/01/21 03:04:04;;;;;;;0.20;0.20;;;;;;;;;;1745483;81;26386;-37
2022/01/21 03:06:31;;;;;;;0.17;0.17;;;;;;;;;;1756244;81;26231;-38
2022/01/21 03:08:59;;;;;;;0.10;0.10;;;;;;;;;;1763619;80;26687;-37
2022/01/21 03:11:27;;;;;;;0.25;0.25;;;;;;;;;;1760434;81;26247;-42
2022/01/21 03:13:55;;;;;;;0.23;0.23;;;;;;;;;;1765814;80;26917;-35
2022/01/21 03:16:23;;;;;;;0.10;0.10;;;;;;;;;;1770971;80;26355;-46
2022/01/21 03:18:50;;;;;;;0.20;0.20;;;;;;;;;;1767213;80;26743;-38
2022/01/21 03:21:17;;;;;;;0.17;0.17;;;;;;;;;;1764976;80;26322;-45
2022/01/21 03:23:46;;;;;;;0.20;0.20;;;;;;;;;;1782345;80;26273;-35
2022/01/21 03:26:15;;;;;;;0.10;0.10;;;;;;;;;;1753256;82;26268;-39
2022/01/21 03:28:42;;;;;;;0.10;0.10;;;;;;;;;;1774232;80;26413;-42
2022/01/21 03:31:10;;;;;;;0.20;0.20;;;;;;;;;;1775011;81;26629;-38
2022/01/21 03:33:38;;;;;;;0.10;0.10;;;;;;;;;;1777900;81;26364;-50
2022/01/21 03:36:05;;;;;;;0.10;0.10;;;;;;;;;;1777716;81;26384;-44
2022/01/21 03:38:33;;;;;;;0.30;0.30;;;;;;;;;;1778036;81;26719;-36
2022/01/21 03:41:01;;;;;;;0.17;0.17;;;;;;;;;;1777909;80;26302;-36
2022/01/21 03:43:28;;;;;;;0.13;0.13;;;;;;;;;;1775673;81;26330;-42
2022/01/21 03:45:55;;;;;;;0.17;0.13;;;;;;;;;;1776345;81;26762;-45
2022/01/21 03:48:23;;;;;;;0.20;0.20;;;;;;;;;;1766668;80;26347;-42
2022/01/21 03:50:50;;;;;;;0.20;0.20;;;;;;;;;;1762704;81;26402;-43
2022/01/21 03:53:18;;;;;;;0.20;0.20;;;;;;;;;;1778217;80;26234;-35
2022/01/21 03:55:46;;;;;;;0.30;0.30;;;;;;;;;;1777384;81;26302;-52
2022/01/21 03:58:14;;;;;;;0.13;0.13;;;;;;;;;;1772572;79;26243;-40
2022/01/21 04:00:48;;;;;;;0.20;0.20;;;;;;;;;;1770715;81;26311;-40
2022/01/21 04:03:16;;;;;;;0.23;0.23;;;;;;;;;;1775018;81;26313;-39
2022/01/21 04:05:43;;;;;;;0.20;0.20;;;;;;;;;;1777613;80;26843;-44
2022/01/21 04:08:12;;;;;;;0.20;0.20;;;;;;;;;;1777717;80;26307;-45
2022/01/21 04:10:42;;;;;;;0.40;0.20;;;;;;;;;;1776243;80;26262;-44
2022/01/21 04:13:20;;;;;;;0.13;0.13;;;;;;;;;;1777200;79;26957;-35
2022/01/21 04:15:38;;;;;;;0.20;0.20;;;;;;;;;;1771240;81;26322;-43
2022/01/21 04:18:06;;;;;;;0.20;0.20;;;;;;;;;;1759646;81;26349;-47
2022/01/21 04:20:33;;;;;;;0.20;0.10;;;;;;;;;;1755892;81;26723;-52
2022/01/21 04:23:00;;;;;;;0.20;0.20;;;;;;;;;;1752181;81;26288;-41
2022/01/21 04:25:27;;;;;;;0.17;0.17;;;;;;;;;;1750738;81;26251;-39
2022/01/21 04:27:56;;;;;;;0.10;0.10;;;;;;;;;;1757112;81;26283;-38
2022/01/21 04:30:24;;;;;;;0.20;0.20;;;;;;;;;;1752151;80;26293;-44
2022/01/21 04:32:51;;;;;;;0.20;0.20;;;;;;;;;;1758488;81;26298;-35
2022/01/21 04:35:18;;;;;;;0.20;0.20;;;;;;;;;;1757606;80;26703;-40
2022/01/21 04:37:57;;;;;;;0.10;0.10;;;;;;;;;;1743266;81;26286;-40
2022/01/21 04:40:17;;;;;;;0.10;0.10;;;;;;;;;;1754893;80;26764;-37
2022/01/21 04:48:15;;;;;;;0.10;0.10;;;;;;;;;;1763022;80;26363;-41
2022/01/21 04:50:54;;;;;;;0.45;0.33;;;;;;;;;;1758499;80;26282;-50
2022/01/21 04:53:11;;;;;;;0.20;0.20;;;;;;;;;;1755705;81;26380;-35
2022/01/21 04:55:38;;;;;;;0.10;0.10;;;;;;;;;;1756539;81;26747;-38
2022/01/21 04:58:05;;;;;;;0.37;0.37;;;;;;;;;;1757150;81;26802;-40
2022/01/21 05:00:33;;;;;;;0.30;0.30;;;;;;;;;;1752284;80;26820;-45
2022/01/21 05:03:00;;;;;;;0.10;0.10;;;;;;;;;;1748979;81;26341;-35
2022/01/21 05:05:28;;;;;;;0.40;0.40;;;;;;;;;;1757682;80;26862;-43
2022/01/21 05:07:58;;;;;;;0.20;0.20;;;;;;;;;;1742133;81;26279;-46
2022/01/21 05:10:27;;;;;;;0.10;0.10;;;;;;;;;;1757990;80;26296;-38
2022/01/21 05:12:54;;;;;;;0.20;0.20;;;;;;;;;;1757959;80;26356;-45
2022/01/21 05:15:43;;;;;;;0.30;0.30;;;;;;;;;;1754875;81;26291;-52
2022/01/21 05:17:56;;;;;;;0.10;0.10;;;;;;;;;;1752368;81;26444;-46
2022/01/21 05:20:23;;;;;;;0.20;0.20;;;;;;;;;;1757876;80;26314;-41
2022/01/21 05:22:51;;;;;;;0.17;0.17;;;;;;;;;;1756510;80;26396;-35
2022/01/21 05:25:19;;;;;;;0.10;0.10;;;;;;;;;;1741143;81;26839;-40
2022/01/21 05:27:48;;;;;;;0.10;0.10;;;;;;;;;;1748132;81;26381;-46
2022/01/21 05:30:17;;;;;;;0.10;0.10;;;;;;;;;;1757562;80;26384;-37
2022/01/21 05:32:45;;;;;;;0.20;0.20;;;;;;;;;;1756132;81;26353;-42
2022/01/21 05:35:12;;;;;;;0.25;0.20;;;;;;;;;;1742958;81;26278;-43
2022/01/21 05:37:40;;;;;;;0.10;0.10;;;;;;;;;;1753845;81;26760;-40
2022/01/21 05:40:10;;;;;;;0.20;0.20;;;;;;;;;;1756017;81;26271;-47
2022/01/21 05:42:37;;;;;;;0.20;0.20;;;;;;;;;;1758134;80;26348;-39
2022/01/21 05:47:34;;;;;;;0.20;0.20;;;;;;;;;;1754155;80;26321;-38
2022/01/21 05:50:02;;;;;;;0.30;0.30;;;;;;;;;;1753605;80;26366;-38
2022/01/21 05:52:37;;;;;;;0.20;0.20;;;;;;;;;;1752121;81;26424;-45
2022/01/21 05:54:59;;;;;;;0.10;0.05;;;;;;;;;;1756947;81;26480;-38
2022/01/21 05:57:26;;;;;;;0.30;0.30;;;;;;;;;;1757839;81;26321;-37
2022/01/21 05:59:53;;;;;;;0.40;0.40;;;;;;;;;;1756560;81;26849;-40
2022/01/21 06:02:21;;;;;;;0.00;0.00;;;;;;;;;;1757183;81;26675;-41
2022/01/21 06:04:50;;;;;;;0.10;0.10;;;;;;;;;;1744804;80;26379;-41
2022/01/21 06:07:17;;;;;;;0.10;0.10;;;;;;;;;;1758254;80;26350;-40
2022/01/21 06:09:45;;;;;;;0.20;0.20;;;;;;;;;;1758100;81;26836;-40
2022/01/21 06:12:12;;;;;;;0.10;0.10;;;;;;;;;;1747890;80;26243;-41
2022/01/21 06:14:40;;;;;;;0.20;0.20;;;;;;;;;;1754757;81;26846;-52
2022/01/21 06:17:07;;;;;;;0.20;0.20;;;;;;;;;;1750257;81;26290;-52
2022/01/21 06:19:34;;;;;;;0.20;0.20;;;;;;;;;;1756748;80;26337;-37
2022/01/21 06:22:01;;;;;;;0.10;0.10;;;;;;;;;;1754150;81;26396;-47
2022/01/21 06:24:29;;;;;;;0.13;0.13;;;;;;;;;;1760724;80;26278;-47
2022/01/21 06:27:01;;;;;;;0.20;0.20;;;;;;;;;;1756180;81;26274;-42
2022/01/21 06:29:25;;;;;;;0.20;0.20;;;;;;;;;;1747754;81;26868;-35
2022/01/21 06:31:52;;;;;;;0.28;0.28;;;;;;;;;;1750908;81;26337;-34
2022/01/21 06:34:20;;;;;;;0.20;0.20;;;;;;;;;;1755763;81;26291;-39
2022/01/21 06:36:48;;;;;;;0.20;0.20;;;;;;;;;;1756857;81;26860;-48
2022/01/21 06:39:16;;;;;;;0.20;0.20;;;;;;;;;;1756535;81;26282;-36
2022/01/21 06:41:46;;;;;;;0.20;0.20;;;;;;;;;;1757545;80;26865;-40
2022/01/21 06:44:12;;;;;;;0.62;0.40;;;;;;;;;;1752238;81;26313;-42
2022/01/21 06:46:39;;;;;;;0.20;0.20;;;;;;;;;;1757866;81;26235;-43
2022/01/21 06:49:06;;;;;;;0.10;0.10;;;;;;;;;;1754428;80;26287;-42
2022/01/21 06:51:34;;;;;;;0.13;0.13;;;;;;;;;;1754954;80;26290;-49
2022/01/21 06:54:01;;;;;;;0.10;0.10;;;;;;;;;;1755327;81;26307;-34
2022/01/21 06:56:30;;;;;;;0.17;0.17;;;;;;;;;;1755896;81;26838;-46
2022/01/21 06:58:58;;;;;;;0.30;0.30;;;;;;;;;;1750100;81;26335;-48
2022/01/21 07:01:25;;;;;;;0.20;0.20;;;;;;;;;;1752782;81;26283;-45
2022/01/21 07:03:52;;;;;;;0.10;0.10;;;;;;;;;;1756074;80;26279;-37
2022/01/21 07:06:20;;;;;;;0.42;0.30;;;;;;;;;;1755805;81;26294;-38
2022/01/21 07:08:48;;;;;;;0.65;0.20;;;;;;;;;;1754660;81;26346;-38
2022/01/21 07:11:16;;;;;;;0.15;0.15;;;;;;;;;;1750779;81;26231;-34
2022/01/21 07:13:43;;;;;;;0.10;0.10;;;;;;;;;;1751781;80;26404;-38
2022/01/21 07:16:10;;;;;;;0.30;0.30;;;;;;;;;;1747776;81;26322;-47
2022/01/21 07:18:38;;;;;;;0.10;0.10;;;;;;;;;;1759834;80;26770;-41
2022/01/21 07:21:05;;;;;;;0.68;0.23;;;;;;;;;;1763231;81;26337;-45
2022/01/21 07:23:32;;;;;;;0.45;0.20;;;;;;;;;;1765978;81;26337;-39
2022/01/21 07:25:59;;;;;;;0.65;0.10;;;;;;;;;;1764074;81;26348;-34
2022/01/21 07:28:27;;;;;;;1.55;0.30;;;;;;;;;;1766206;80;26235;-35
2022/01/21 07:30:54;;;;;;;2.50;0.20;;;;;;;;;;1759462;81;26336;-36
2022/01/21 07:33:21;;;;;;;0.88;0.30;;;;;;;;;;1758322;81;26611;-42
2022/01/21 07:35:49;;;;;;;1.72;0.40;;;;;;;;;;1758531;81;26270;-34
2022/01/21 07:38:16;;;;;;;0.50;0.20;;;;;;;;;;1763282;81;26274;-35
2022/01/21 07:40:44;;;;;;;3.35;0.40;;;;;;;;;;1762560;81;26329;-52
2022/01/21 07:43:12;;;;;;;0.80;0.30;;;;;;;;;;1765491;81;26323;-35
2022/01/21 07:45:39;;;;;;;0.30;0.30;;;;;;;;;;1763481;81;26777;-38
2022/01/21 07:48:07;;;;;;;0.30;0.30;;;;;;;;;;1766164;81;26292;-40
2022/01/21 07:50:35;;;;;;;2.27;0.45;;;;;;;;;;1760051;81;25656;-44
2022/01/21 07:53:03;;;;;;;0.33;0.33;;;;;;;;;;1764609;81;26305;-36
2022/01/21 07:55:30;;;;;;;1.35;0.37;;;;;;;;;;1761112;80;27861;-46
2022/01/21 07:58:00;;;;;;;1.42;0.30;;;;;;;;;;1764516;81;26328;-38
2022/01/21 08:00:27;;;;;;;2.15;0.53;;;;;;;;;;1762543;80;26300;-34
2022/01/21 08:02:54;;;;;;;0.95;0.47;;;;;;;;;;1762291;80;26793;-36
2022/01/21 08:05:22;;;;;;;0.85;0.42;;;;;;;;;;1761678;81;26349;-40
2022/01/21 08:07:49;;;;;;;1.98;0.50;;;;;;;;;;1765449;81;26310;-37
2022/01/21 08:10:16;;;;;;;0.45;0.30;;;;;;;;;;1766862;81;26736;-33
2022/01/21 08:12:44;;;;;;;1.35;0.40;;;;;;;;;;1766744;80;26734;-37
2022/01/21 08:15:11;;;;;;;0.30;0.30;;;;;;;;;;1766983;80;26789;-32
2022/01/21 08:17:38;;;;;;;0.20;0.20;;;;;;;;;;1766316;81;26344;-32
2022/01/21 08:20:06;;;;;;;0.50;0.50;;;;;;;;;;1755785;80;26318;-32
2022/01/21 08:22:33;;;;;;;0.25;0.25;;;;;;;;;;1744636;81;26808;-38
2022/01/21 08:25:00;;;;;;;0.20;0.20;;;;;;;;;;1762021;80;26788;-33
2022/01/21 08:27:28;;;;;;;0.70;0.25;;;;;;;;;;1761561;80;26789;-30
2022/01/21 08:29:56;;;;;;;0.45;0.30;;;;;;;;;;1752685;81;26825;-38
2022/01/21 08:32:24;;;;;;;0.35;0.35;;;;;;;;;;1757143;80;26268;-39
2022/01/21 08:34:51;;;;;;;0.30;0.30;;;;;;;;;;1742384;80;26293;-33
2022/01/21 08:37:19;;;;;;;1.75;0.50;;;;;;;;;;1751729;81;26369;-34
2022/01/21 08:39:46;;;;;;;0.50;0.50;;;;;;;;;;1736084;81;26351;-37
2022/01/21 08:42:13;;;;;;;0.30;0.30;;;;;;;;;;1751752;80;26375;-30
2022/01/21 08:44:41;;;;;;;0.30;0.30;;;;;;;;;;1758220;81;26340;-34
2022/01/21 08:47:08;;;;;;;0.40;0.40;;;;;;;;;;1758318;81;26309;-41
2022/01/21 08:49:35;;;;;;;0.40;0.40;;;;;;;;;;1758210;81;26317;-35
2022/01/21 08:52:04;;;;;;;0.37;0.37;;;;;;;;;;1757948;80;26349;-33
2022/01/21 08:54:31;;;;;;;0.30;0.30;;;;;;;;;;1758106;81;26851;-29
2022/01/21 08:56:59;;;;;;;0.53;0.50;;;;;;;;;;1758376;81;26299;-30
2022/01/21 08:59:26;;;;;;;0.25;0.25;;;;;;;;;;1758500;81;26270;-33
2022/01/21 09:01:54;;;;;;;0.45;0.30;;;;;;;;;;1752995;81;26747;-34
2022/01/21 09:04:22;;;;;;;0.30;0.30;;;;;;;;;;1742924;81;26298;-35
2022/01/21 09:06:50;;;;;;;0.33;0.30;;;;;;;;;;1748937;81;26303;-34
2022/01/21 09:09:18;;;;;;;0.25;0.25;;;;;;;;;;1757453;81;26881;-35
2022/01/21 09:11:45;;;;;;;0.57;0.55;;;;;;;;;;1752972;81;26352;-32
2022/01/21 09:14:13;;;;;;;0.62;0.30;;;;;;;;;;1757600;80;26342;-26
2022/01/21 09:16:42;;;;;;;2.45;0.30;;;;;;;;;;1755042;81;26343;-29
2022/01/21 09:19:09;;;;;;;1.85;0.20;;;;;;;;;;1759417;80;26406;-34
2022/01/21 09:21:38;;;;;;;0.28;0.28;;;;;;;;;;1762200;81;26616;-34
2022/01/21 09:24:06;;;;;;;0.30;0.30;;;;;;;;;;1764794;81;26644;-34
2022/01/21 09:26:33;;;;;;;0.40;0.40;;;;;;;;;;1754386;80;28306;-30
2022/01/21 09:29:03;;;;;;;0.30;0.30;;;;;;;;;;1766443;81;26291;-32
2022/01/21 09:31:31;;;;;;;0.30;0.30;;;;;;;;;;1766589;80;26329;-32
2022/01/21 09:33:58;;;;;;;0.42;0.35;;;;;;;;;;1759599;81;26880;-39
2022/01/21 09:36:26;;;;;;;0.20;0.20;;;;;;;;;;1759514;81;26404;-32
2022/01/21 09:38:54;;;;;;;0.10;0.10;;;;;;;;;;1756333;81;26278;-33
2022/01/21 09:41:21;;;;;;;0.28;0.28;;;;;;;;;;1766108;80;26306;-34
2022/01/21 09:43:52;;;;;;;0.20;0.20;;;;;;;;;;1750261;81;26293;-33
2022/01/21 09:46:20;;;;;;;3.37;1.15;;;;;;;;;;1766226;80;26303;-36
2022/01/21 09:48:54;;;;;;;1.20;0.25;;;;;;;;;;1756544;80;26336;-33
2022/01/21 09:51:20;;;;;;;0.72;0.37;;;;;;;;;;1762689;81;26722;-34
2022/01/21 09:53:47;;;;;;;0.35;0.30;;;;;;;;;;1765287;81;26364;-34
2022/01/21 09:56:16;;;;;;;0.47;0.30;;;;;;;;;;1761128;81;26753;-39
2022/01/21 09:58:45;;;;;;;1.27;0.40;;;;;;;;;;1763069;81;26870;-41
2022/01/21 10:01:13;;;;;;;1.35;0.23;;;;;;;;;;1751201;81;26299;-33
2022/01/21 10:03:42;;;;;;;1.12;0.30;;;;;;;;;;1757680;80;26255;-39
2022/01/21 10:06:10;;;;;;;0.33;0.30;;;;;;;;;;1758059;81;26290;-34
2022/01/21 10:08:38;;;;;;;0.55;0.40;;;;;;;;;;1758230;81;26305;-35
2022/01/21 10:11:05;;;;;;;1.05;0.25;;;;;;;;;;1759801;81;26659;-41
2022/01/21 10:13:35;;;;;;;0.72;0.33;;;;;;;;;;1766675;80;26306;-34
2022/01/21 10:16:03;;;;;;;0.93;0.10;;;;;;;;;;1762108;81;26305;-35
2022/01/21 10:18:31;;;;;;;0.62;0.30;;;;;;;;;;1763992;80;26412;-39
2022/01/21 10:20:59;;;;;;;0.30;0.30;;;;;;;;;;1757294;80;26613;-37
2022/01/21 10:23:28;;;;;;;0.30;0.30;;;;;;;;;;1751738;81;26298;-34
2022/01/21 10:25:56;;;;;;;0.40;0.40;;;;;;;;;;1753294;80;26321;-34
2022/01/21 10:28:24;;;;;;;0.30;0.30;;;;;;;;;;1757323;80;26213;-33
2022/01/21 10:30:53;;;;;;;0.80;0.40;;;;;;;;;;1753299;81;26299;-33
2022/01/21 10:33:24;;;;;;;0.33;0.33;;;;;;;;;;1753873;81;26336;-32
2022/01/21 10:35:53;;;;;;;0.37;0.35;;;;;;;;;;1757064;81;26302;-31
2022/01/21 10:38:29;;;;;;;1.47;0.28;;;;;;;;;;1753296;81;26238;-32
2022/01/21 10:40:51;;;;;;;0.57;0.40;;;;;;;;;;1748714;81;26243;-32
2022/01/21 10:43:19;;;;;;;2.05;0.40;;;;;;;;;;1751374;81;26875;-37
2022/01/21 10:45:57;;;;;;;0.50;0.40;;;;;;;;;;1749326;81;26361;-36
2022/01/21 10:48:26;;;;;;;0.47;0.47;;;;;;;;;;1757732;81;26282;-32
2022/01/21 10:51:11;;;;;;;1.60;0.42;;;;;;;;;;1751742;81;26332;-31
2022/01/21 10:53:43;;;;;;;0.40;0.40;;;;;;;;;;1755854;80;26391;-32
2022/01/21 10:56:12;;;;;;;0.30;0.30;;;;;;;;;;1752977;81;26283;-35
2022/01/21 10:58:41;;;;;;;1.57;0.50;;;;;;;;;;1751608;80;26785;-37
2022/01/21 11:01:17;;;;;;;0.30;0.30;;;;;;;;;;1742379;81;26987;-38
2022/01/21 11:03:40;;;;;;;1.45;0.30;;;;;;;;;;1754867;81;26306;-46
2022/01/21 11:06:13;;;;;;;0.45;0.45;;;;;;;;;;1749396;80;26380;-36
2022/01/21 11:08:40;;;;;;;0.33;0.33;;;;;;;;;;1751662;80;26358;-33
2022/01/21 11:11:07;;;;;;;0.35;0.35;;;;;;;;;;1751509;81;26327;-38
2022/01/21 11:13:36;;;;;;;4.20;0.33;;;;;;;;;;1747520;81;26282;-34
2022/01/21 11:16:09;;;;;;;0.47;0.47;;;;;;;;;;1751416;81;26862;-33
2022/01/21 11:18:38;;;;;;;0.80;0.42;;;;;;;;;;1757375;81;26406;-34
2022/01/21 11:21:08;;;;;;;6.22;0.60;;;;;;;;;;1754952;80;26440;-35
2022/01/21 11:23:35;;;;;;;2.10;0.60;;;;;;;;;;1751659;80;26373;-36
2022/01/21 11:26:08;;;;;;;1.22;0.33;;;;;;;;;;1756240;81;26376;-35
2022/01/21 11:28:46;;;;;;;2.05;0.50;;;;;;;;;;1753924;81;26865;-37
2022/01/21 11:31:14;;;;;;;1.27;0.50;;;;;;;;;;1757643;80;26341;-34
2022/01/21 11:33:41;;;;;;;2.50;0.60;;;;;;;;;;1757908;81;26652;-38
2022/01/21 11:36:09;;;;;;;0.82;0.47;;;;;;;;;;1745450;81;26299;-36
2022/01/21 11:38:38;;;;;;;0.50;0.50;;;;;;;;;;1748343;81;26741;-37
2022/01/21 11:41:06;;;;;;;1.47;0.50;;;;;;;;;;1749391;81;26380;-36
2022/01/21 11:43:35;;;;;;;0.55;0.50;;;;;;;;;;1758018;81;26303;-38
2022/01/21 11:46:06;;;;;;;1.60;0.50;;;;;;;;;;1749581;81;26393;-38
2022/01/21 11:51:11;;;;;;;1.47;0.50;;;;;;;;;;1755192;80;26389;-36
2022/01/21 11:53:46;;;;;;;1.95;0.53;;;;;;;;;;1747389;80;26313;-35
2022/01/21 11:56:29;;;;;;;0.98;0.47;;;;;;;;;;1752968;81;26947;-38
2022/01/21 11:59:01;;;;;;;0.33;0.33;;;;;;;;;;1757236;81;26746;-35
2022/01/21 12:01:38;;;;;;;1.12;0.35;;;;;;;;;;1752705;80;26680;-37
2022/01/21 12:04:04;;;;;;;0.35;0.35;;;;;;;;;;1757491;81;26334;-40
2022/01/21 12:06:33;;;;;;;0.42;0.35;;;;;;;;;;1758794;81;26794;-35
2022/01/21 12:09:02;;;;;;;1.67;0.40;;;;;;;;;;1755508;81;26286;-36
2022/01/21 12:11:31;;;;;;;1.07;0.30;;;;;;;;;;1741770;80;26359;-36
2022/01/21 12:13:59;;;;;;;0.70;0.50;;;;;;;;;;1757948;80;26314;-34
2022/01/21 12:16:50;;;;;;;0.93;0.40;;;;;;;;;;1757954;81;26295;-35
2022/01/21 12:19:20;;;;;;;0.50;0.50;;;;;;;;;;1757037;81;26413;-39
2022/01/21 12:21:43;;;;;;;5.17;0.40;;;;;;;;;;1745436;81;26258;-34
2022/01/21 12:24:11;;;;;;;2.65;0.62;;;;;;;;;;1754616;81;26333;-34
2022/01/21 12:26:40;;;;;;;2.52;0.60;;;;;;;;;;1757951;81;26282;-35
2022/01/21 12:29:14;;;;;;;1.42;0.25;;;;;;;;;;1753460;81;26309;-34
2022/01/21 12:31:47;;;;;;;0.47;0.30;;;;;;;;;;1752053;80;26291;-34
2022/01/21 12:34:15;;;;;;;2.30;0.50;;;;;;;;;;1753309;81;26346;-33
2022/01/21 12:36:44;;;;;;;2.37;0.45;;;;;;;;;;1744391;81;26716;-34
2022/01/21 12:39:29;;;;;;;0.30;0.30;;;;;;;;;;1757177;81;26238;-33
2022/01/21 12:41:57;;;;;;;1.37;0.30;;;;;;;;;;1744779;81;26624;-34
2022/01/21 12:44:26;;;;;;;0.40;0.40;;;;;;;;;;1760136;81;26281;-35
2022/01/21 12:46:53;;;;;;;0.60;0.40;;;;;;;;;;1753190;81;26237;-36
2022/01/21 12:49:33;;;;;;;1.85;0.40;;;;;;;;;;1757216;81;26316;-34
2022/01/21 12:57:26;;;;;;;0.60;0.50;;;;;;;;;;1746763;81;26961;-33
2022/01/21 12:59:58;;;;;;;0.50;0.50;;;;;;;;;;1751002;81;26521;-34
2022/01/21 13:02:27;;;;;;;0.50;0.50;;;;;;;;;;1751267;81;26352;-35
2022/01/21 13:05:02;;;;;;;0.82;0.50;;;;;;;;;;1753200;81;26365;-35
2022/01/21 13:07:40;;;;;;;1.85;0.50;;;;;;;;;;1756436;81;26370;-35
2022/01/21 13:10:09;;;;;;;0.55;0.30;;;;;;;;;;1712381;82;26393;-34
2022/01/21 13:15:38;;;;;;;0.50;0.50;;;;;;;;;;1758443;80;26436;-34
2022/01/21 13:18:09;;;;;;;0.40;0.40;;;;;;;;;;1757998;81;26271;-34
2022/01/21 13:20:38;;;;;;;0.62;0.60;;;;;;;;;;1757146;81;26307;-34
2022/01/21 13:23:06;;;;;;;0.68;0.40;;;;;;;;;;1764737;81;26838;-35
2022/01/21 13:25:35;;;;;;;0.50;0.50;;;;;;;;;;1761863;81;26931;-37
2022/01/21 13:28:03;;;;;;;0.85;0.55;;;;;;;;;;1761030;81;26900;-36
2022/01/21 13:30:32;;;;;;;0.42;0.42;;;;;;;;;;1754837;80;26282;-36
2022/01/21 13:33:01;;;;;;;0.65;0.30;;;;;;;;;;1759592;80;26356;-34
2022/01/21 13:35:29;;;;;;;0.62;0.50;;;;;;;;;;1754005;81;26290;-34
2022/01/21 13:38:01;;;;;;;0.80;0.40;;;;;;;;;;1764550;81;26286;-34
2022/01/21 13:40:31;;;;;;;0.40;0.40;;;;;;;;;;1756484;81;26758;-35
2022/01/21 13:43:09;;;;;;;0.42;0.30;;;;;;;;;;1762174;81;26565;-38
2022/01/21 13:45:39;;;;;;;0.53;0.47;;;;;;;;;;1752617;81;26370;-37
2022/01/21 13:48:06;;;;;;;0.40;0.40;;;;;;;;;;1760561;81;26373;-36
2022/01/21 13:50:34;;;;;;;4.03;0.50;;;;;;;;;;1761297;81;26428;-38
2022/01/21 13:53:06;;;;;;;3.50;0.50;;;;;;;;;;1761220;81;26628;-33
2022/01/21 13:55:42;;;;;;;1.35;0.33;;;;;;;;;;1757229;81;26700;-37
2022/01/21 13:58:10;;;;;;;0.40;0.40;;;;;;;;;;1753839;81;26322;-33
2022/01/21 14:00:39;;;;;;;0.53;0.45;;;;;;;;;;1763082;81;26262;-34
2022/01/21 14:03:17;;;;;;;1.45;0.60;;;;;;;;;;1756805;81;26757;-34
2022/01/21 14:05:55;;;;;;;0.42;0.30;;;;;;;;;;1759626;81;26783;-36
2022/01/21 14:08:33;;;;;;;1.70;0.45;;;;;;;;;;1760117;81;26286;-35
2022/01/21 14:11:10;;;;;;;1.30;0.50;;;;;;;;;;1765392;80;26353;-32
2022/01/21 14:13:39;;;;;;;0.55;0.40;;;;;;;;;;1761862;80;26724;-33
2022/01/21 14:16:08;;;;;;;0.45;0.45;;;;;;;;;;1759442;81;26909;-34
2022/01/21 14:18:37;;;;;;;0.40;0.40;;;;;;;;;;1759140;81;26604;-34
2022/01/21 14:21:16;;;;;;;0.47;0.47;;;;;;;;;;1763604;81;26337;-44
2022/01/21 14:23:44;;;;;;;0.90;0.55;;;;;;;;;;1734771;81;26340;-35
2022/01/21 14:26:15;;;;;;;0.35;0.35;;;;;;;;;;1732576;81;26331;-43
2022/01/21 14:28:46;;;;;;;0.40;0.40;;;;;;;;;;1734535;81;26737;-38
2022/01/21 14:31:32;;;;;;;0.28;0.28;;;;;;;;;;1735236;81;26819;-33
2022/01/21 14:34:01;;;;;;;0.40;0.40;;;;;;;;;;1734689;81;26843;-37
2022/01/21 14:36:29;;;;;;;0.30;0.30;;;;;;;;;;1734444;81;26713;-35
2022/01/21 14:39:15;;;;;;;0.35;0.35;;;;;;;;;;1734720;81;26358;-34
2022/01/21 14:41:44;;;;;;;0.30;0.30;;;;;;;;;;1732486;81;26304;-34
2022/01/21 14:44:13;;;;;;;0.40;0.40;;;;;;;;;;1734801;81;26367;-41
2022/01/21 14:46:41;;;;;;;0.40;0.30;;;;;;;;;;1740555;81;26348;-36
2022/01/21 14:49:09;;;;;;;0.42;0.30;;;;;;;;;;1737029;81;26371;-35
2022/01/21 14:51:45;;;;;;;1.17;0.30;;;;;;;;;;1737321;81;26406;-35
2022/01/21 14:54:08;;;;;;;0.40;0.40;;;;;;;;;;1734410;81;26332;-38
2022/01/21 14:56:36;;;;;;;1.10;0.30;;;;;;;;;;1733684;81;26394;-32
2022/01/21 14:59:13;;;;;;;0.28;0.28;;;;;;;;;;1735026;81;26308;-32
2022/01/21 15:01:56;;;;;;;0.82;0.40;;;;;;;;;;1734102;81;26816;-41
2022/01/21 15:04:23;;;;;;;0.47;0.40;;;;;;;;;;1734989;81;26316;-39
2022/01/21 15:06:55;;;;;;;0.60;0.50;;;;;;;;;;1735218;81;26343;-35
2022/01/21 15:09:23;;;;;;;0.45;0.40;;;;;;;;;;1733179;81;26732;-33
2022/01/21 15:12:09;;;;;;;1.30;0.20;;;;;;;;;;1735222;81;26848;-35
2022/01/21 15:14:26;;;;;;;0.40;0.40;;;;;;;;;;1733811;81;26418;-33
2022/01/21 15:16:55;;;;;;;0.78;0.25;;;;;;;;;;1735390;81;26843;-33
2022/01/21 15:19:35;;;;;;;0.30;0.30;;;;;;;;;;1736421;81;26292;-32
2022/01/21 15:22:10;;;;;;;0.20;0.20;;;;;;;;;;1738503;80;26312;-41
2022/01/21 15:24:38;;;;;;;0.33;0.30;;;;;;;;;;1759696;81;26302;-35
2022/01/21 15:27:05;;;;;;;0.33;0.33;;;;;;;;;;1763013;81;26289;-35
2022/01/21 15:29:33;;;;;;;0.35;0.33;;;;;;;;;;1759817;81;26278;-35
2022/01/21 15:32:00;;;;;;;0.62;0.45;;;;;;;;;;1760934;81;26051;-35
2022/01/21 15:34:27;;;;;;;1.25;0.40;;;;;;;;;;1756378;80;28334;-41
2022/01/21 15:36:56;;;;;;;0.35;0.35;;;;;;;;;;1757773;81;26294;-35
2022/01/21 15:39:23;;;;;;;0.30;0.30;;;;;;;;;;1764407;81;26298;-37
2022/01/21 15:41:51;;;;;;;0.30;0.30;;;;;;;;;;1764095;80;26222;-34
2022/01/21 15:44:19;;;;;;;0.42;0.42;;;;;;;;;;1763070;81;26361;-37